NCAR-RAP Real-Time Weather Data

Output produced by METARs form (23 July 2018  17:07 UTC)
found at http://weather.rap.ucar.edu/surface/
 
KAXN 231653Z AUTO 34011G18KT 10SM FEW033 26/16 A3011 RMK AO2 SLP189 T02610161
KAXN 231553Z AUTO 34011G19KT 10SM FEW020 26/18 A3011 RMK AO2 SLP188 T02560183
KAXN 231512Z AUTO 33011KT 10SM FEW016 SCT023 24/19 A3011 RMK AO2 T02440189
 
KETH 231603Z AUTO 33012G15KT 10SM CLR 24/13 A3013 RMK AO2
KETH 231534Z AUTO 33011G16KT 10SM CLR 24/13 A3013 RMK AO2
KETH 231511Z AUTO 32009KT 10SM CLR 23/14 A3013 RMK AO2
 
KMOX 231656Z AUTO 33016KT 10SM CLR 24/16 A3010 RMK AO2
KMOX 231635Z AUTO 35013G16KT 10SM CLR 24/15 A3010 RMK AO2
KMOX 231615Z AUTO 33015KT 10SM CLR 24/15 A3009 RMK AO2
KMOX 231555Z AUTO 34014G17KT 10SM CLR 24/16 A3009 RMK AO2
KMOX 231535Z AUTO 35015KT 10SM CLR 24/16 A3010 RMK AO2
KMOX 231515Z AUTO 33013G16KT 10SM CLR 24/17 A3009 RMK AO2
 
KVVV 231655Z AUTO 35013KT 10SM CLR 24/14 A3012 RMK AO2
KVVV 231635Z AUTO 34011G20KT 296V356 10SM CLR 24/14 A3011 RMK AO2
KVVV 231615Z AUTO 34011G18KT 10SM CLR 24/14 A3011 RMK AO2
KVVV 231555Z AUTO 35013G16KT 10SM CLR 24/14 A3011 RMK AO2
KVVV 231535Z AUTO 36014KT 10SM CLR 23/14 A3011 RMK AO2
KVVV 231515Z AUTO 35012G16KT 10SM CLR 23/15 A3011 RMK AO2
 
KAQP 231651Z AUTO 32010G15KT 10SM CLR 26/13 A3010 RMK AO2
KAQP 231631Z AUTO 36015KT 10SM CLR 26/13 A3009 RMK AO2
KAQP 231617Z AUTO 35013G18KT 10SM CLR 26/13 A3010 RMK AO2
KAQP 231557Z AUTO 34016G21KT 10SM CLR 25/13 A3009 RMK AO2
KAQP 231530Z AUTO 33012G18KT 10SM SCT022 25/15 A3010 RMK AO2
KAQP 231510Z AUTO 32011KT 10SM SCT020 25/18 A3009 RMK AO2
 
 
KHCD 231655Z AUTO 29005KT 10SM OVC042 24/20 A3008 RMK AO2 T02350202
KHCD 231635Z AUTO 00000KT 10SM BKN042 BKN049 24/20 A3008 RMK AO2 T02350199
KHCD 231615Z AUTO 27005KT 10SM BKN040 BKN048 24/20 A3008 RMK AO2 T02350202
KHCD 231555Z AUTO 27003KT 10SM BKN038 OVC045 23/20 A3008 RMK AO2 T02300199
KHCD 231535Z AUTO 00000KT 10SM BKN038 BKN048 23/20 A3008 RMK AO2 T02300199
KHCD 231515Z AUTO 00000KT 10SM BKN040 OVC050 23/20 A3008 RMK AO2 T02290197
 
KGYL 231655Z AUTO 34004KT 10SM SCT041 SCT060 BKN080 26/19 A3006 RMK AO2 T02570187
KGYL 231635Z AUTO 32005KT 10SM BKN041 BKN049 OVC085 25/19 A3007 RMK AO2 T02520186
KGYL 231615Z AUTO 29005KT 10SM OVC041 25/18 A3006 RMK AO2 T02540183
KGYL 231556Z AUTO 31005KT 10SM BKN041 BKN060 BKN070 25/19 A3007 RMK AO2 T02500190
KGYL 231555Z AUTO 30004KT 10SM BKN041 BKN060 BKN070 25/19 A3007 RMK AO2 T02500189
KGYL 231535Z AUTO 29004KT 10SM BKN041 OVC070 24/20 A3007 RMK AO2 T02410204
KGYL 231515Z AUTO 29006KT 10SM BKN070 24/21 A3007 RMK AO2 T02370208
 
KLJF 231655Z AUTO 30008KT 10SM SCT017 24/21 A3008 RMK AO2
KLJF 231635Z AUTO 32007KT 10SM CLR 24/21 A3008 RMK AO2
KLJF 231615Z AUTO 29006KT 10SM CLR 24/21 A3008 RMK AO2
KLJF 231555Z AUTO 00000KT 10SM SCT032 23/21 A3008 RMK AO2
KLJF 231535Z AUTO 00000KT 10SM SCT034 22/21 A3007 RMK AO2
KLJF 231515Z AUTO 00000KT 10SM BKN036 22/21 A3008 RMK AO2
 
KDXX 231655Z AUTO 34013G17KT 10SM CLR 27/16 A3011 RMK AO2
KDXX 231635Z AUTO 34013G16KT 10SM CLR 26/16 A3011 RMK AO2
KDXX 231615Z AUTO 33013G17KT 10SM CLR 26/16 A3011 RMK AO2
KDXX 231555Z AUTO 33013KT 10SM CLR 26/17 A3011 RMK AO2
KDXX 231535Z AUTO 34013KT 10SM SCT017 26/19 A3011 RMK AO2
KDXX 231515Z AUTO 32013G17KT 10SM SCT017 26/21 A3010 RMK AO2
 
KMVE 231655Z AUTO 36013G18KT 10SM CLR 26/18 A3010 RMK AO2
KMVE 231635Z AUTO 01011KT 10SM CLR 25/18 A3010 RMK AO2
KMVE 231615Z AUTO 36014G18KT 10SM SCT025 25/20 A3009 RMK AO2
KMVE 231555Z AUTO 01012G18KT 10SM SCT021 25/20 A3009 RMK AO2
KMVE 231535Z AUTO 03012KT 10SM SCT019 24/21 A3009 RMK AO2
KMVE 231515Z AUTO 03008G14KT 10SM SCT017 SCT023 24/21 A3009 RMK AO2
 
KMWM 231655Z AUTO 30008KT 10SM SCT018 25/23 A3009 RMK AO2
KMWM 231635Z AUTO 31009KT 10SM SCT020 SCT050 25/23 A3009 RMK AO2
KMWM 231615Z AUTO 30007KT 10SM SCT050 25/23 A3008 RMK AO2
KMWM 231555Z AUTO 29009KT 10SM CLR 24/23 A3009 RMK AO2
KMWM 231535Z AUTO 28009KT 10SM CLR 23/22 A3009 RMK AO2
KMWM 231515Z AUTO 29008KT 10SM SCT050 23/21 A3009 RMK AO2
 
KBBB 231655Z AUTO 36012G16KT 10SM CLR 26/16 A3011 RMK AO2
KBBB 231635Z AUTO 01010G18KT 10SM CLR 26/16 A3011 RMK AO2
KBBB 231615Z AUTO 01012G18KT 10SM CLR 26/16 A3010 RMK AO2
KBBB 231555Z AUTO 01009G19KT 10SM CLR 25/18 A3010 RMK AO2
KBBB 231535Z AUTO 01011G17KT 10SM SCT018 25/19 A3010 RMK AO2
KBBB 231515Z AUTO 35011G16KT 10SM SCT018 24/19 A3010 RMK AO2
 
KRWF 231653Z AUTO 34006KT 9SM OVC017 23/21 A3007 RMK AO2 SLP179 T02330206
KRWF 231553Z AUTO 30007KT 8SM BKN015 BKN040 OVC050 24/21 A3007 RMK AO2 SLP177 T02440211
 
KMML 231656Z AUTO 34014KT 10SM SCT023 25/19 A3010 RMK AO2 SLP188 T02500189
KMML 231626Z AUTO 34011G21KT 10SM SCT022 25/20 A3009 RMK AO2
KMML 231556Z AUTO 34012KT 10SM BKN018 24/20 A3010 RMK AO2 SLP187 T02390200
KMML 231543Z AUTO 33011KT 10SM BKN016 BKN022 24/20 A3010 RMK AO2
KMML 231535Z AUTO 34011KT 10SM SCT015 24/21 A3010 RMK AO2
 
KULM 231655Z AUTO 31007KT 10SM SCT065 25/19 A3006 RMK AO2
KULM 231636Z AUTO 30006KT 10SM CLR 24/19 A3007 RMK AO2
KULM 231615Z AUTO 33008KT 10SM SCT090 24/19 A3007 RMK AO2
KULM 231555Z AUTO 29011KT 10SM CLR 25/19 A3007 RMK AO2
KULM 231536Z AUTO 27008KT 10SM SCT041 24/19 A3007 RMK AO2
KULM 231515Z AUTO 30009KT 10SM CLR 24/19 A3008 RMK AO2
 
KPQN 231655Z AUTO 01009G15KT 10SM SCT035 26/18 A3013 RMK AO2
KPQN 231635Z AUTO 01010G15KT 10SM CLR 26/18 A3013 RMK AO2
KPQN 231615Z AUTO 36010G19KT 10SM CLR 26/18 A3012 RMK AO2
KPQN 231555Z AUTO 36012G18KT 10SM CLR 25/19 A3012 RMK AO2
KPQN 231535Z AUTO 35011G16KT 10SM CLR 25/19 A3012 RMK AO2
KPQN 231515Z AUTO 35008KT 10SM CLR 24/19 A3012 RMK AO2
 
KOTG 231656Z AUTO 32011KT 10SM BKN021 OVC040 24/20 A3012 RMK AO2 SLP194 T02440200
KOTG 231556Z AUTO 31010KT 10SM SCT016 BKN028 OVC055 24/20 A3012 RMK AO2 SLP192 T02390200
 
KMJQ 231655Z AUTO 33006KT 10SM SCT018 SCT023 BKN060 24/20 A3011 RMK AO2
KMJQ 231635Z AUTO 32008KT 10SM SCT065 SCT080 24/20 A3010 RMK AO2
KMJQ 231615Z AUTO 32007KT 294V354 10SM SCT036 SCT043 SCT070 24/20 A3010 RMK AO2
KMJQ 231555Z AUTO 29006KT 10SM SCT031 BKN036 OVC045 22/19 A3011 RMK AO2
KMJQ 231535Z AUTO 29006KT 10SM BKN036 OVC047 22/18 A3011 RMK AO2
KMJQ 231515Z AUTO 30007KT 10SM BKN038 BKN048 OVC060 22/18 A3011 RMK AO2
 
KFRM 231656Z AUTO 34008KT 10SM FEW030 26/19 A3008 RMK AO2 SLP183 T02560189
KFRM 231556Z AUTO 32009KT 10SM CLR 25/19 A3009 RMK AO2 SLP187 T02500189
 
KJYG 231655Z AUTO 30007KT 274V334 10SM SCT022 SCT041 26/21 A3008 RMK AO2
KJYG 231635Z AUTO 31008KT SCT026 BKN041 26/20 A3008 RMK AO2 PWINO
KJYG 231615Z AUTO 30008KT SCT025 SCT039 26/20 A3008 RMK AO2 PWINO
KJYG 231555Z AUTO 29006KT CLR 26/20 A3008 RMK AO2
KJYG 231535Z AUTO 29010KT 10SM SCT045 25/19 A3009 RMK AO2
KJYG 231515Z AUTO 29007KT 10SM SCT047 24/19 A3009 RMK AO2
 
KEST 231652Z AUTO 31009KT 10SM SCT075 24/19 A3009 RMK AO2 SLP183 T02390194
KEST 231552Z AUTO 31009KT 10SM OVC055 23/19 A3010 RMK AO2 SLP186 T02280194
 
KGHW 231655Z AUTO 34011G19KT 10SM CLR 24/17 A3010 RMK AO2
KGHW 231635Z AUTO 32013G17KT 10SM CLR 24/17 A3010 RMK AO2
KGHW 231615Z AUTO 32010G16KT 10SM CLR 24/19 A3009 RMK AO2
KGHW 231555Z AUTO 33010KT 10SM CLR 24/19 A3009 RMK AO2
KGHW 231535Z AUTO 32011KT 10SM CLR 23/19 A3010 RMK AO2
KGHW 231515Z AUTO 31011G14KT 10SM CLR 23/19 A3010 RMK AO2